createdAt,value
2019-03-20T00:04:49.680Z,99047.63
2019-03-20T00:09:48.370Z,99050.60
2019-03-20T00:14:51.859Z,99059.98
2019-03-20T00:19:55.263Z,99044.20
2019-03-20T00:24:58.805Z,99050.73
2019-03-20T00:30:02.325Z,99048.56
2019-03-20T00:35:06.080Z,99045.95
2019-03-20T00:40:10.607Z,99048.59
2019-03-20T00:45:14.080Z,99047.22
2019-03-20T00:50:17.657Z,99045.41
2019-03-20T00:55:21.096Z,99038.09
2019-03-20T01:00:24.582Z,99047.89
2019-03-20T01:05:28.130Z,99045.73
2019-03-20T01:10:32.685Z,99047.47
2019-03-20T01:15:36.140Z,99043.47
2019-03-20T01:20:39.618Z,99047.33
2019-03-20T01:25:43.313Z,99057.70
2019-03-20T01:30:46.736Z,99053.30
2019-03-20T01:35:50.243Z,99052.41
2019-03-20T01:40:53.667Z,99051.55
2019-03-20T01:45:57.201Z,99062.30
2019-03-20T01:51:10.573Z,99060.54
2019-03-20T01:56:14.073Z,99064.79
2019-03-20T02:01:17.515Z,99064.37
2019-03-20T02:06:21.029Z,99065.70
2019-03-20T02:11:24.432Z,99059.39
2019-03-20T02:16:27.927Z,99061.39
2019-03-20T02:21:31.353Z,99063.99
2019-03-20T02:26:34.852Z,99064.36
2019-03-20T02:31:38.310Z,99065.28
2019-03-20T02:36:41.796Z,99069.91
2019-03-20T02:41:45.240Z,99069.07
2019-03-20T02:46:48.695Z,99073.93
2019-03-20T02:51:52.225Z,99074.31
2019-03-20T02:56:55.606Z,99073.28
2019-03-20T03:01:59.084Z,99069.88
2019-03-20T03:07:02.515Z,99073.28
2019-03-20T03:12:05.953Z,99074.92
2019-03-20T03:17:11.449Z,99074.97
2019-03-20T03:22:14.928Z,99073.68
2019-03-20T03:27:18.401Z,99081.50
2019-03-20T03:32:21.993Z,99081.87
2019-03-20T03:37:25.575Z,99089.34
2019-03-20T03:42:29.141Z,99094.70
2019-03-20T03:47:32.640Z,99087.92
2019-03-20T03:52:36.154Z,99088.73
2019-03-20T03:57:39.802Z,99092.47
2019-03-20T04:02:43.235Z,99101.08
2019-03-20T04:07:46.687Z,99108.72
2019-03-20T04:12:50.122Z,99104.77
2019-03-20T04:17:53.579Z,99103.94
2019-03-20T04:22:57.145Z,99100.52
2019-03-20T04:28:00.634Z,99104.78
2019-03-20T04:33:04.262Z,99108.09
2019-03-20T04:38:07.661Z,99110.16
2019-03-20T04:43:11.077Z,99121.16
2019-03-20T04:48:14.552Z,99123.64
2019-03-20T04:53:18.003Z,99122.41
2019-03-20T04:58:21.416Z,99127.13
2019-03-20T05:03:24.951Z,99136.34
2019-03-20T05:08:28.467Z,99142.97
2019-03-20T05:13:31.974Z,99150.38
2019-03-20T05:18:35.464Z,99154.06
2019-03-20T05:23:38.889Z,99158.71
2019-03-20T05:28:42.322Z,99163.61
2019-03-20T05:33:45.801Z,99173.16
2019-03-20T05:38:49.238Z,99179.15
2019-03-20T05:43:52.713Z,99193.05
2019-03-20T05:48:56.125Z,99195.91
2019-03-20T05:53:59.722Z,99200.61
2019-03-20T05:59:06.934Z,99211.09
2019-03-20T06:04:10.369Z,99209.52
2019-03-20T06:09:13.812Z,99224.27
2019-03-20T06:14:17.281Z,99216.84
2019-03-20T06:19:20.705Z,99227.22
2019-03-20T06:24:24.229Z,99231.62
2019-03-20T06:29:27.646Z,99240.30
2019-03-20T06:34:31.237Z,99243.94
2019-03-20T06:39:34.757Z,99243.23
2019-03-20T06:44:38.180Z,99250.98
2019-03-20T06:49:42.600Z,99253.31
2019-03-20T06:54:46.120Z,99247.94
2019-03-20T07:00:05.499Z,99251.56
2019-03-20T07:05:18.262Z,99251.59
2019-03-20T07:10:30.917Z,99256.93
2019-03-20T07:15:34.349Z,99260.55
2019-03-20T07:20:37.792Z,99260.16
2019-03-20T07:25:41.269Z,99263.48
2019-03-20T07:30:44.703Z,99271.09
2019-03-20T07:35:48.136Z,99269.91
2019-03-20T07:40:51.530Z,99274.49
2019-03-20T07:45:54.962Z,99272.38
2019-03-20T07:50:58.410Z,99275.24
2019-03-20T07:56:01.864Z,99276.54
2019-03-20T08:01:05.412Z,99286.48
2019-03-20T08:06:08.889Z,99292.13
2019-03-20T08:11:12.388Z,99290.41
2019-03-20T08:16:16.808Z,99283.48
2019-03-20T08:21:20.227Z,99282.63
2019-03-20T08:26:23.631Z,99283.05
2019-03-20T08:31:27.014Z,99287.20
2019-03-20T08:36:30.440Z,99283.25
2019-03-20T08:41:33.885Z,99287.63
2019-03-20T08:46:37.445Z,99284.80
2019-03-20T08:51:40.947Z,99291.81
2019-03-20T08:56:44.654Z,99282.00
2019-03-20T09:01:48.237Z,99282.88
2019-03-20T09:06:51.705Z,99289.56
2019-03-20T09:11:55.100Z,99287.59
2019-03-20T09:16:58.740Z,99282.22
2019-03-20T09:22:02.214Z,99283.64
2019-03-20T09:27:05.640Z,99287.67
2019-03-20T09:32:09.656Z,99286.50
2019-03-20T09:37:13.148Z,99297.84
2019-03-20T09:42:16.548Z,99295.64
2019-03-20T09:47:20.065Z,99292.98
2019-03-20T09:52:23.581Z,99288.22
2019-03-20T09:57:27.185Z,99291.67
2019-03-20T10:02:30.796Z,99297.45
2019-03-20T10:07:34.251Z,99304.02
2019-03-20T10:12:37.707Z,99313.97
2019-03-20T10:17:41.185Z,99307.11
2019-03-20T10:22:44.652Z,99309.76
2019-03-20T10:27:48.068Z,99305.53
2019-03-20T10:32:51.490Z,99313.92
2019-03-20T10:37:54.942Z,99298.67
2019-03-20T10:42:58.544Z,99305.66
2019-03-20T10:48:02.024Z,99306.31
2019-03-20T10:53:05.716Z,99304.34
2019-03-20T10:58:09.326Z,99304.33
2019-03-20T11:03:12.830Z,99303.13
2019-03-20T11:08:16.328Z,99299.09
2019-03-20T11:13:20.941Z,99294.00
2019-03-20T11:18:24.403Z,99294.77
2019-03-20T11:23:27.936Z,99288.55
2019-03-20T11:28:31.620Z,99283.20
2019-03-20T11:33:35.163Z,99287.14
2019-03-20T11:38:38.757Z,99286.74
2019-03-20T11:43:42.277Z,99264.64
2019-03-20T11:48:45.785Z,99277.05
2019-03-20T11:53:49.975Z,99265.66
2019-03-20T11:58:53.678Z,99269.27
2019-03-20T12:03:58.281Z,99260.06
2019-03-20T12:09:01.813Z,99243.30
2019-03-20T12:14:05.576Z,99246.75
2019-03-20T12:19:10.173Z,99229.68
2019-03-20T12:24:13.741Z,99236.59
2019-03-20T12:29:18.388Z,99225.33
2019-03-20T12:34:21.893Z,99215.86
2019-03-20T12:39:26.448Z,99207.25
2019-03-20T12:44:30.321Z,99207.42
2019-03-20T12:49:33.882Z,99205.93
2019-03-20T12:54:37.385Z,99196.02
2019-03-20T12:59:40.879Z,99201.20
2019-03-20T13:04:44.349Z,99194.88
2019-03-20T13:09:47.821Z,99193.03
2019-03-20T13:14:51.312Z,99176.75
2019-03-20T13:19:54.944Z,99188.99
2019-03-20T13:24:58.437Z,99177.12
2019-03-20T13:30:01.893Z,99176.00
2019-03-20T13:35:05.853Z,99176.33
2019-03-20T13:40:14.454Z,99178.89
2019-03-20T13:45:14.677Z,99174.95
2019-03-20T13:50:18.173Z,99170.29
2019-03-20T13:55:21.648Z,99167.09
2019-03-20T14:00:25.280Z,99165.64
2019-03-20T14:05:28.735Z,99162.30
2019-03-20T14:10:32.256Z,99164.25
2019-03-20T14:15:35.876Z,99164.73
2019-03-20T14:20:39.378Z,99154.41
2019-03-20T14:25:42.880Z,99166.60
2019-03-20T14:30:46.412Z,99158.18
2019-03-20T14:35:49.908Z,99144.80
2019-03-20T14:40:53.438Z,99152.48
2019-03-20T14:45:57.049Z,99155.63
2019-03-20T14:51:00.725Z,99150.50
2019-03-20T14:56:04.247Z,99153.39
2019-03-20T15:01:07.868Z,99148.27
2019-03-20T15:06:11.448Z,99149.52
2019-03-20T15:11:15.093Z,99156.34
2019-03-20T15:16:18.710Z,99151.72
2019-03-20T15:21:22.286Z,99159.81
2019-03-20T15:26:25.926Z,99165.34
2019-03-20T15:31:29.556Z,99151.95
2019-03-20T15:36:33.256Z,99148.42
2019-03-20T15:41:36.900Z,99140.94
2019-03-20T15:46:40.360Z,99153.90
2019-03-20T15:51:44.060Z,99154.86
2019-03-20T15:56:48.665Z,99151.12
2019-03-20T16:01:57.676Z,99152.81
2019-03-20T16:07:07.654Z,99163.20
2019-03-20T16:12:16.852Z,99158.09
2019-03-20T16:17:20.540Z,99160.87
2019-03-20T16:22:25.107Z,99164.16
2019-03-20T16:27:29.896Z,99165.88
2019-03-20T16:32:33.514Z,99166.55
2019-03-20T16:37:37.102Z,99170.66
2019-03-20T16:42:40.692Z,99163.48
2019-03-20T16:47:44.295Z,99162.75
2019-03-20T16:52:48.001Z,99163.34
2019-03-20T16:57:51.535Z,99158.16
2019-03-20T17:02:55.079Z,99166.31
2019-03-20T17:07:58.687Z,99178.13
2019-03-20T17:13:02.303Z,99183.72
2019-03-20T17:18:06.000Z,99185.28
2019-03-20T17:23:09.564Z,99196.22
2019-03-20T17:28:13.212Z,99205.30
2019-03-20T17:33:16.785Z,99199.18
2019-03-20T17:38:20.392Z,99196.66
2019-03-20T17:43:23.922Z,99210.10
2019-03-20T17:48:27.523Z,99205.57
2019-03-20T17:53:31.111Z,99208.67
2019-03-20T17:58:34.750Z,99207.53
2019-03-20T18:03:38.556Z,99209.76
2019-03-20T18:08:42.173Z,99216.66
2019-03-20T18:13:45.801Z,99219.84
2019-03-20T18:18:49.621Z,99228.48
2019-03-20T18:23:53.229Z,99224.48
2019-03-20T18:28:56.887Z,99237.28
2019-03-20T18:34:00.603Z,99256.02
2019-03-20T18:39:06.101Z,99254.22
2019-03-20T18:44:09.748Z,99258.71
2019-03-20T18:49:14.367Z,99271.06
2019-03-20T18:54:18.371Z,99273.78
2019-03-20T18:59:22.010Z,99269.52
2019-03-20T19:04:25.590Z,99267.00
2019-03-20T19:09:29.150Z,99279.66
2019-03-20T19:14:32.803Z,99274.05
2019-03-20T19:19:36.339Z,99274.63
2019-03-20T19:24:39.904Z,99283.33
2019-03-20T19:29:43.481Z,99287.64
2019-03-20T19:34:47.137Z,99285.48
2019-03-20T19:39:50.750Z,99295.53
2019-03-20T19:44:54.341Z,99301.14
2019-03-20T19:49:57.940Z,99306.33
2019-03-20T19:55:01.676Z,99312.41
2019-03-20T20:00:06.079Z,99313.68
2019-03-20T20:05:15.618Z,99315.42
2019-03-20T20:10:13.741Z,99320.58
2019-03-20T20:15:19.283Z,99326.19
2019-03-20T20:20:23.010Z,99320.97
2019-03-20T20:25:26.619Z,99322.23
2019-03-20T20:30:30.359Z,99331.70
2019-03-20T20:35:34.274Z,99336.84
2019-03-20T20:40:37.952Z,99336.39
2019-03-20T20:45:41.730Z,99338.06
2019-03-20T20:50:45.498Z,99339.30
2019-03-20T20:55:49.076Z,99336.27
2019-03-20T21:00:52.643Z,99340.99
2019-03-20T21:05:57.347Z,99352.98
2019-03-20T21:11:01.092Z,99352.39
2019-03-20T21:37:57.448Z,99364.19
2019-03-20T21:43:13.775Z,99366.64
2019-03-20T22:48:41.567Z,99397.67
2019-03-20T22:58:00.189Z,99388.23
